Time;durP1;ratioP1;P1;durP2;ratioP2;P2;SDS_P1;SDS_P2;PMS_P1;PMS_P2;Temp;Humidity;BMP_temperature;BMP_pressure;BME280_temperature;BME280_humidity;BME280_pressure;Samples;Min_cycle;Max_cycle;Signal;HPM_P1;HPM_P2
2022/04/12 00:00:02;;;;;;;5.9;5.2;;;;;;;9.9;100.0;100880;;;;
2022/04/12 00:01:00;;;;;;;5.9;5.2;;;;;;;9.9;100.0;100880;;;;
2022/04/12 00:02:00;;;;;;;5.9;5.2;;;;;;;9.9;100.0;100880;;;;
2022/04/12 00:03:00;;;;;;;5.9;5.2;;;;;;;9.9;100.0;100880;;;;
2022/04/12 00:04:01;;;;;;;5.9;5.2;;;;;;;9.9;100.0;100880;;;;
2022/04/12 00:05:07;;;;;;;5.9;5.2;;;;;;;9.9;100.0;100870;;;;
2022/04/12 00:06:00;;;;;;;5.9;5.2;;;;;;;9.9;100.0;100870;;;;
2022/04/12 00:07:00;;;;;;;5.9;5.2;;;;;;;9.8;100.0;100870;;;;
2022/04/12 00:08:00;;;;;;;5.9;5.2;;;;;;;9.8;100.0;100870;;;;
2022/04/12 00:09:00;;;;;;;5.9;5.2;;;;;;;9.9;100.0;100870;;;;
2022/04/12 00:10:00;;;;;;;5.9;5.2;;;;;;;9.9;100.0;100870;;;;
2022/04/12 00:11:00;;;;;;;5.9;5.2;;;;;;;9.8;100.0;100860;;;;
2022/04/12 00:12:00;;;;;;;5.9;5.2;;;;;;;9.8;100.0;100860;;;;
2022/04/12 00:13:00;;;;;;;5.9;5.2;;;;;;;9.8;100.0;100860;;;;
2022/04/12 00:14:00;;;;;;;5.9;5.2;;;;;;;9.8;100.0;100860;;;;
2022/04/12 00:15:00;;;;;;;5.9;5.2;;;;;;;9.8;100.0;100860;;;;
2022/04/12 00:16:00;;;;;;;5.9;5.2;;;;;;;9.8;100.0;100860;;;;
2022/04/12 00:19:03;;;;;;;6.1;5.5;;;;;;;9.7;100.0;100850;;;;
2022/04/12 00:20:00;;;;;;;6.1;5.5;;;;;;;9.7;100.0;100850;;;;
2022/04/12 00:21:00;;;;;;;6.1;5.5;;;;;;;9.7;100.0;100850;;;;
2022/04/12 00:22:00;;;;;;;6.1;5.5;;;;;;;9.7;100.0;100850;;;;
2022/04/12 00:23:00;;;;;;;6.1;5.5;;;;;;;9.6;100.0;100850;;;;
2022/04/12 00:24:02;;;;;;;6.1;5.5;;;;;;;9.6;100.0;100850;;;;
2022/04/12 00:25:00;;;;;;;6.1;5.5;;;;;;;9.7;100.0;100840;;;;
2022/04/12 00:26:00;;;;;;;6.1;5.5;;;;;;;9.7;100.0;100840;;;;
2022/04/12 00:27:00;;;;;;;6.1;5.5;;;;;;;9.7;100.0;100830;;;;
2022/04/12 00:28:00;;;;;;;6.1;5.5;;;;;;;9.7;100.0;100830;;;;
2022/04/12 00:29:00;;;;;;;6.1;5.5;;;;;;;9.8;100.0;100830;;;;
2022/04/12 00:30:00;;;;;;;6.1;5.5;;;;;;;9.8;100.0;100830;;;;
2022/04/12 00:31:00;;;;;;;6.1;5.5;;;;;;;9.7;100.0;100830;;;;
2022/04/12 00:32:00;;;;;;;6.1;5.5;;;;;;;9.7;100.0;100830;;;;
2022/04/12 00:33:00;;;;;;;6.1;5.5;;;;;;;9.7;100.0;100830;;;;
2022/04/12 00:34:00;;;;;;;6.1;5.5;;;;;;;9.7;100.0;100830;;;;
2022/04/12 00:35:00;;;;;;;6.1;5.5;;;;;;;9.8;100.0;100830;;;;
2022/04/12 00:36:02;;;;;;;6.1;5.5;;;;;;;9.8;100.0;100830;;;;
2022/04/12 00:37:00;;;;;;;6.0;4.8;;;;;;;9.8;100.0;100830;;;;
2022/04/12 00:38:00;;;;;;;6.0;4.8;;;;;;;9.8;100.0;100830;;;;
2022/04/12 00:39:00;;;;;;;6.0;4.8;;;;;;;9.7;100.0;100840;;;;
2022/04/12 00:40:00;;;;;;;6.0;4.8;;;;;;;9.7;100.0;100840;;;;
2022/04/12 00:41:00;;;;;;;6.0;4.8;;;;;;;9.6;100.0;100830;;;;
2022/04/12 00:42:00;;;;;;;6.0;4.8;;;;;;;9.6;100.0;100830;;;;
2022/04/12 00:43:02;;;;;;;6.0;4.8;;;;;;;9.7;100.0;100830;;;;
2022/04/12 00:44:00;;;;;;;6.0;4.8;;;;;;;9.7;100.0;100830;;;;
2022/04/12 00:45:00;;;;;;;6.0;4.8;;;;;;;9.6;100.0;100820;;;;
2022/04/12 00:46:00;;;;;;;6.0;4.8;;;;;;;9.6;100.0;100820;;;;
2022/04/12 00:47:00;;;;;;;6.0;4.8;;;;;;;9.6;100.0;100830;;;;
2022/04/12 00:48:00;;;;;;;6.0;4.8;;;;;;;9.6;100.0;100830;;;;
2022/04/12 00:49:00;;;;;;;6.0;4.8;;;;;;;9.6;100.0;100830;;;;
2022/04/12 00:50:00;;;;;;;6.0;4.8;;;;;;;9.6;100.0;100830;;;;
2022/04/12 00:51:00;;;;;;;6.0;4.8;;;;;;;9.6;100.0;100820;;;;
2022/04/12 00:52:00;;;;;;;6.0;4.8;;;;;;;9.6;100.0;100820;;;;
2022/04/12 00:53:00;;;;;;;6.0;4.8;;;;;;;9.6;100.0;100820;;;;
2022/04/12 00:54:00;;;;;;;6.0;4.8;;;;;;;9.6;100.0;100820;;;;
2022/04/12 00:55:02;;;;;;;6.0;4.8;;;;;;;9.4;100.0;100820;;;;
2022/04/12 00:56:00;;;;;;;6.0;4.8;;;;;;;9.4;100.0;100820;;;;
2022/04/12 00:57:00;;;;;;;5.7;5.2;;;;;;;9.4;100.0;100820;;;;
2022/04/12 00:58:06;;;;;;;5.7;5.2;;;;;;;9.4;100.0;100820;;;;
2022/04/12 00:59:02;;;;;;;5.7;5.2;;;;;;;9.5;100.0;100830;;;;
2022/04/12 01:00:03;;;;;;;5.7;5.2;;;;;;;9.5;100.0;100830;;;;
2022/04/12 01:01:00;;;;;;;5.7;5.2;;;;;;;9.6;100.0;100820;;;;
2022/04/12 01:02:02;;;;;;;5.7;5.2;;;;;;;9.6;100.0;100820;;;;
2022/04/12 01:03:01;;;;;;;5.7;5.2;;;;;;;9.5;100.0;100820;;;;
2022/04/12 01:04:00;;;;;;;5.7;5.2;;;;;;;9.5;100.0;100820;;;;
2022/04/12 01:05:00;;;;;;;5.7;5.2;;;;;;;9.4;100.0;100830;;;;
2022/04/12 01:06:00;;;;;;;5.7;5.2;;;;;;;9.4;100.0;100830;;;;
2022/04/12 01:07:00;;;;;;;5.7;5.2;;;;;;;9.4;100.0;100830;;;;
2022/04/12 01:08:01;;;;;;;5.7;5.2;;;;;;;9.4;100.0;100830;;;;
2022/04/12 01:09:04;;;;;;;5.7;5.2;;;;;;;9.4;100.0;100820;;;;
2022/04/12 01:10:00;;;;;;;5.7;5.2;;;;;;;9.4;100.0;100820;;;;
2022/04/12 01:11:06;;;;;;;5.7;5.2;;;;;;;9.5;100.0;100820;;;;
2022/04/12 01:12:08;;;;;;;5.7;5.2;;;;;;;9.5;100.0;100820;;;;
2022/04/12 01:13:00;;;;;;;5.7;5.2;;;;;;;9.4;100.0;100820;;;;
2022/04/12 01:14:00;;;;;;;5.7;5.2;;;;;;;9.4;100.0;100820;;;;
2022/04/12 01:15:09;;;;;;;5.7;5.2;;;;;;;9.3;100.0;100830;;;;
2022/04/12 01:16:00;;;;;;;5.7;5.2;;;;;;;9.3;100.0;100830;;;;
2022/04/12 01:17:02;;;;;;;5.9;5.2;;;;;;;9.4;100.0;100830;;;;
2022/04/12 01:18:00;;;;;;;5.9;5.2;;;;;;;9.4;100.0;100830;;;;
2022/04/12 01:19:00;;;;;;;5.9;5.2;;;;;;;9.3;100.0;100830;;;;
2022/04/12 01:20:00;;;;;;;5.9;5.2;;;;;;;9.3;100.0;100830;;;;
2022/04/12 01:21:00;;;;;;;5.9;5.2;;;;;;;9.3;100.0;100820;;;;
2022/04/12 01:22:03;;;;;;;5.9;5.2;;;;;;;9.3;100.0;100820;;;;
2022/04/12 01:23:09;;;;;;;5.9;5.2;;;;;;;9.3;100.0;100820;;;;
2022/04/12 01:24:02;;;;;;;5.9;5.2;;;;;;;9.3;100.0;100820;;;;
2022/04/12 01:25:00;;;;;;;5.9;5.2;;;;;;;9.5;100.0;100820;;;;
2022/04/12 01:26:00;;;;;;;5.9;5.2;;;;;;;9.5;100.0;100820;;;;
2022/04/12 01:27:00;;;;;;;5.9;5.2;;;;;;;9.4;100.0;100820;;;;
2022/04/12 01:28:00;;;;;;;5.9;5.2;;;;;;;9.4;100.0;100820;;;;
2022/04/12 01:29:00;;;;;;;5.9;5.2;;;;;;;9.4;100.0;100820;;;;
2022/04/12 01:30:00;;;;;;;5.9;5.2;;;;;;;9.4;100.0;100820;;;;
2022/04/12 01:31:00;;;;;;;5.9;5.2;;;;;;;9.3;100.0;100820;;;;
2022/04/12 01:32:01;;;;;;;5.9;5.2;;;;;;;9.3;100.0;100820;;;;
2022/04/12 01:33:00;;;;;;;5.9;5.2;;;;;;;9.3;100.0;100820;;;;
2022/04/12 01:34:00;;;;;;;5.9;5.2;;;;;;;9.3;100.0;100820;;;;
2022/04/12 01:35:00;;;;;;;5.9;5.2;;;;;;;9.4;100.0;100820;;;;
2022/04/12 01:36:00;;;;;;;5.9;5.2;;;;;;;9.4;100.0;100820;;;;
2022/04/12 01:37:00;;;;;;;5.8;5.2;;;;;;;9.4;100.0;100820;;;;
2022/04/12 01:38:01;;;;;;;5.8;5.2;;;;;;;9.4;100.0;100820;;;;
2022/04/12 01:39:01;;;;;;;5.8;5.2;;;;;;;9.2;100.0;100820;;;;
2022/04/12 01:40:00;;;;;;;5.8;5.2;;;;;;;9.2;100.0;100820;;;;
2022/04/12 01:41:00;;;;;;;5.8;5.2;;;;;;;9.2;100.0;100820;;;;
2022/04/12 01:42:00;;;;;;;5.8;5.2;;;;;;;9.2;100.0;100820;;;;
2022/04/12 01:43:00;;;;;;;5.8;5.2;;;;;;;9.2;100.0;100820;;;;
2022/04/12 01:44:00;;;;;;;5.8;5.2;;;;;;;9.2;100.0;100820;;;;
2022/04/12 01:45:00;;;;;;;5.8;5.2;;;;;;;9.1;100.0;100810;;;;
2022/04/12 01:46:00;;;;;;;5.8;5.2;;;;;;;9.1;100.0;100810;;;;
2022/04/12 01:47:00;;;;;;;5.8;5.2;;;;;;;9.2;100.0;100820;;;;
2022/04/12 01:48:00;;;;;;;5.8;5.2;;;;;;;9.2;100.0;100820;;;;
2022/04/12 01:49:00;;;;;;;5.8;5.2;;;;;;;9.1;100.0;100820;;;;
2022/04/12 01:50:00;;;;;;;5.8;5.2;;;;;;;9.1;100.0;100820;;;;
2022/04/12 01:51:00;;;;;;;5.8;5.2;;;;;;;9.1;100.0;100830;;;;
2022/04/12 01:52:01;;;;;;;5.8;5.2;;;;;;;9.1;100.0;100830;;;;
2022/04/12 01:53:00;;;;;;;5.8;5.2;;;;;;;9.1;100.0;100820;;;;
2022/04/12 01:54:00;;;;;;;5.8;5.2;;;;;;;9.1;100.0;100820;;;;
2022/04/12 01:55:02;;;;;;;5.8;5.2;;;;;;;9.1;100.0;100820;;;;
2022/04/12 01:56:00;;;;;;;5.8;5.2;;;;;;;9.1;100.0;100820;;;;
2022/04/12 01:57:00;;;;;;;5.7;5.2;;;;;;;9.1;100.0;100820;;;;
2022/04/12 01:58:00;;;;;;;5.7;5.2;;;;;;;9.1;100.0;100820;;;;
2022/04/12 01:59:02;;;;;;;5.7;5.2;;;;;;;9.0;100.0;100820;;;;
2022/04/12 02:00:00;;;;;;;5.7;5.2;;;;;;;9.0;100.0;100820;;;;
2022/04/12 02:01:00;;;;;;;5.7;5.2;;;;;;;9.1;100.0;100820;;;;
2022/04/12 02:02:00;;;;;;;5.7;5.2;;;;;;;9.1;100.0;100820;;;;
2022/04/12 02:03:00;;;;;;;5.7;5.2;;;;;;;9.0;100.0;100820;;;;
2022/04/12 02:04:00;;;;;;;5.7;5.2;;;;;;;9.0;100.0;100820;;;;
2022/04/12 02:05:00;;;;;;;5.7;5.2;;;;;;;9.1;100.0;100810;;;;
2022/04/12 02:06:00;;;;;;;5.7;5.2;;;;;;;9.1;100.0;100810;;;;
2022/04/12 02:07:00;;;;;;;5.7;5.2;;;;;;;8.9;100.0;100810;;;;
2022/04/12 02:08:00;;;;;;;5.7;5.2;;;;;;;8.9;100.0;100810;;;;
2022/04/12 02:09:00;;;;;;;5.7;5.2;;;;;;;8.9;100.0;100800;;;;
2022/04/12 02:10:00;;;;;;;5.7;5.2;;;;;;;8.9;100.0;100800;;;;
2022/04/12 02:11:00;;;;;;;5.7;5.2;;;;;;;8.9;100.0;100800;;;;
2022/04/12 02:12:00;;;;;;;5.7;5.2;;;;;;;8.9;100.0;100800;;;;
2022/04/12 02:13:00;;;;;;;5.7;5.2;;;;;;;8.9;100.0;100800;;;;
2022/04/12 02:14:00;;;;;;;5.7;5.2;;;;;;;8.9;100.0;100800;;;;
2022/04/12 02:15:00;;;;;;;5.7;5.2;;;;;;;8.8;100.0;100790;;;;
2022/04/12 02:16:00;;;;;;;5.7;5.2;;;;;;;8.8;100.0;100790;;;;
2022/04/12 02:17:00;;;;;;;6.5;5.9;;;;;;;8.9;100.0;100800;;;;
2022/04/12 02:18:00;;;;;;;6.5;5.9;;;;;;;8.9;100.0;100800;;;;
2022/04/12 02:19:00;;;;;;;6.5;5.9;;;;;;;8.9;100.0;100800;;;;
2022/04/12 02:20:00;;;;;;;6.5;5.9;;;;;;;8.9;100.0;100800;;;;
2022/04/12 02:21:00;;;;;;;6.5;5.9;;;;;;;8.9;100.0;100800;;;;
2022/04/12 02:22:00;;;;;;;6.5;5.9;;;;;;;8.9;100.0;100800;;;;
2022/04/12 02:23:00;;;;;;;6.5;5.9;;;;;;;8.9;100.0;100800;;;;
2022/04/12 02:24:00;;;;;;;6.5;5.9;;;;;;;8.9;100.0;100800;;;;
2022/04/12 02:25:00;;;;;;;6.5;5.9;;;;;;;8.9;100.0;100800;;;;
2022/04/12 02:26:00;;;;;;;6.5;5.9;;;;;;;8.9;100.0;100800;;;;
2022/04/12 02:27:00;;;;;;;6.5;5.9;;;;;;;8.8;100.0;100810;;;;
2022/04/12 02:28:00;;;;;;;6.5;5.9;;;;;;;8.8;100.0;100810;;;;
2022/04/12 02:29:00;;;;;;;6.5;5.9;;;;;;;8.8;100.0;100810;;;;
2022/04/12 02:30:00;;;;;;;6.5;5.9;;;;;;;8.8;100.0;100810;;;;
2022/04/12 02:31:00;;;;;;;6.5;5.9;;;;;;;8.8;100.0;100800;;;;
2022/04/12 02:32:00;;;;;;;6.5;5.9;;;;;;;8.8;100.0;100800;;;;
2022/04/12 02:33:00;;;;;;;6.5;5.9;;;;;;;8.7;100.0;100800;;;;
2022/04/12 02:34:00;;;;;;;6.5;5.9;;;;;;;8.7;100.0;100800;;;;
2022/04/12 02:35:00;;;;;;;6.5;5.9;;;;;;;8.6;100.0;100800;;;;
2022/04/12 02:36:00;;;;;;;6.5;5.9;;;;;;;8.6;100.0;100800;;;;
2022/04/12 02:37:00;;;;;;;6.4;5.8;;;;;;;8.7;100.0;100810;;;;
2022/04/12 02:38:00;;;;;;;6.4;5.8;;;;;;;8.7;100.0;100810;;;;
2022/04/12 02:39:00;;;;;;;6.4;5.8;;;;;;;8.7;100.0;100800;;;;
2022/04/12 02:40:00;;;;;;;6.4;5.8;;;;;;;8.7;100.0;100800;;;;
2022/04/12 02:41:00;;;;;;;6.4;5.8;;;;;;;8.7;100.0;100800;;;;
2022/04/12 02:42:00;;;;;;;6.4;5.8;;;;;;;8.7;100.0;100800;;;;
2022/04/12 02:43:00;;;;;;;6.4;5.8;;;;;;;8.6;100.0;100800;;;;
2022/04/12 02:44:00;;;;;;;6.4;5.8;;;;;;;8.6;100.0;100800;;;;
2022/04/12 02:45:00;;;;;;;6.4;5.8;;;;;;;8.6;100.0;100800;;;;
2022/04/12 02:46:01;;;;;;;6.4;5.8;;;;;;;8.6;100.0;100800;;;;
2022/04/12 02:47:00;;;;;;;6.4;5.8;;;;;;;8.6;100.0;100790;;;;
2022/04/12 02:48:03;;;;;;;6.4;5.8;;;;;;;8.6;100.0;100790;;;;
2022/04/12 02:49:00;;;;;;;6.4;5.8;;;;;;;8.7;100.0;100790;;;;
2022/04/12 02:50:00;;;;;;;6.4;5.8;;;;;;;8.7;100.0;100790;;;;
2022/04/12 02:51:00;;;;;;;6.4;5.8;;;;;;;8.7;100.0;100790;;;;
2022/04/12 02:52:00;;;;;;;6.4;5.8;;;;;;;8.7;100.0;100790;;;;
2022/04/12 02:53:00;;;;;;;6.4;5.8;;;;;;;8.7;100.0;100790;;;;
2022/04/12 02:54:00;;;;;;;6.4;5.8;;;;;;;8.7;100.0;100790;;;;
2022/04/12 02:55:00;;;;;;;6.4;5.8;;;;;;;8.7;100.0;100790;;;;
2022/04/12 02:56:00;;;;;;;6.4;5.8;;;;;;;8.7;100.0;100790;;;;
2022/04/12 02:57:00;;;;;;;6.6;6.0;;;;;;;8.8;100.0;100790;;;;
2022/04/12 02:58:00;;;;;;;6.6;6.0;;;;;;;8.8;100.0;100790;;;;
2022/04/12 02:59:00;;;;;;;6.6;6.0;;;;;;;8.7;100.0;100780;;;;
2022/04/12 03:00:00;;;;;;;6.6;6.0;;;;;;;8.7;100.0;100780;;;;
2022/04/12 03:01:00;;;;;;;6.6;6.0;;;;;;;8.6;100.0;100780;;;;
2022/04/12 03:02:00;;;;;;;6.6;6.0;;;;;;;8.6;100.0;100780;;;;
2022/04/12 03:03:00;;;;;;;6.6;6.0;;;;;;;8.7;100.0;100770;;;;
2022/04/12 03:04:00;;;;;;;6.6;6.0;;;;;;;8.7;100.0;100770;;;;
2022/04/12 03:05:00;;;;;;;6.6;6.0;;;;;;;8.7;100.0;100770;;;;
2022/04/12 03:06:00;;;;;;;6.6;6.0;;;;;;;8.7;100.0;100770;;;;
2022/04/12 03:07:00;;;;;;;6.6;6.0;;;;;;;8.6;100.0;100780;;;;
2022/04/12 03:08:00;;;;;;;6.6;6.0;;;;;;;8.6;100.0;100780;;;;
2022/04/12 03:09:00;;;;;;;6.6;6.0;;;;;;;8.6;100.0;100770;;;;
2022/04/12 03:10:00;;;;;;;6.6;6.0;;;;;;;8.6;100.0;100770;;;;
2022/04/12 03:11:00;;;;;;;6.6;6.0;;;;;;;8.5;100.0;100770;;;;
2022/04/12 03:12:00;;;;;;;6.6;6.0;;;;;;;8.5;100.0;100770;;;;
2022/04/12 03:13:00;;;;;;;6.6;6.0;;;;;;;8.5;100.0;100760;;;;
2022/04/12 03:14:00;;;;;;;6.6;6.0;;;;;;;8.5;100.0;100760;;;;
2022/04/12 03:15:02;;;;;;;6.6;6.0;;;;;;;8.6;100.0;100760;;;;
2022/04/12 03:16:00;;;;;;;7.1;6.5;;;;;;;8.6;100.0;100760;;;;
2022/04/12 03:17:00;;;;;;;7.1;6.5;;;;;;;8.5;100.0;100760;;;;
2022/04/12 03:18:00;;;;;;;7.1;6.5;;;;;;;8.5;100.0;100760;;;;
2022/04/12 03:19:00;;;;;;;7.1;6.5;;;;;;;8.6;100.0;100760;;;;
2022/04/12 03:20:00;;;;;;;7.1;6.5;;;;;;;8.6;100.0;100760;;;;
2022/04/12 03:21:00;;;;;;;7.1;6.5;;;;;;;8.5;100.0;100770;;;;
2022/04/12 03:22:00;;;;;;;7.1;6.5;;;;;;;8.5;100.0;100770;;;;
2022/04/12 03:23:00;;;;;;;7.1;6.5;;;;;;;8.5;100.0;100770;;;;
2022/04/12 03:24:00;;;;;;;7.1;6.5;;;;;;;8.5;100.0;100770;;;;
2022/04/12 03:25:01;;;;;;;7.1;6.5;;;;;;;8.5;100.0;100760;;;;
2022/04/12 03:26:00;;;;;;;7.1;6.5;;;;;;;8.5;100.0;100760;;;;
2022/04/12 03:27:00;;;;;;;7.1;6.5;;;;;;;8.3;100.0;100760;;;;
2022/04/12 03:28:00;;;;;;;7.1;6.5;;;;;;;8.3;100.0;100760;;;;
2022/04/12 03:29:00;;;;;;;7.1;6.5;;;;;;;8.3;100.0;100750;;;;
2022/04/12 03:30:00;;;;;;;7.1;6.5;;;;;;;8.3;100.0;100750;;;;
2022/04/12 03:31:00;;;;;;;7.1;6.5;;;;;;;8.3;100.0;100750;;;;
2022/04/12 03:32:01;;;;;;;7.1;6.5;;;;;;;8.3;100.0;100750;;;;
2022/04/12 03:33:00;;;;;;;7.1;6.5;;;;;;;8.3;100.0;100750;;;;
2022/04/12 03:34:00;;;;;;;7.1;6.5;;;;;;;8.3;100.0;100750;;;;
2022/04/12 03:35:00;;;;;;;7.1;6.5;;;;;;;8.2;100.0;100750;;;;
2022/04/12 03:36:00;;;;;;;7.4;6.6;;;;;;;8.2;100.0;100750;;;;
2022/04/12 03:37:00;;;;;;;7.4;6.6;;;;;;;8.3;100.0;100750;;;;
2022/04/12 03:38:01;;;;;;;7.4;6.6;;;;;;;8.3;100.0;100750;;;;
2022/04/12 03:39:01;;;;;;;7.4;6.6;;;;;;;8.4;100.0;100750;;;;
2022/04/12 03:40:00;;;;;;;7.4;6.6;;;;;;;8.4;100.0;100750;;;;
2022/04/12 03:41:00;;;;;;;7.4;6.6;;;;;;;8.3;100.0;100740;;;;
2022/04/12 03:42:00;;;;;;;7.4;6.6;;;;;;;8.3;100.0;100740;;;;
2022/04/12 03:43:01;;;;;;;7.4;6.6;;;;;;;8.3;100.0;100730;;;;
2022/04/12 03:44:00;;;;;;;7.4;6.6;;;;;;;8.3;100.0;100730;;;;
2022/04/12 03:45:00;;;;;;;7.4;6.6;;;;;;;8.3;100.0;100730;;;;
2022/04/12 03:46:00;;;;;;;7.4;6.6;;;;;;;8.3;100.0;100730;;;;
2022/04/12 03:47:00;;;;;;;7.4;6.6;;;;;;;8.1;100.0;100730;;;;
2022/04/12 03:48:00;;;;;;;7.4;6.6;;;;;;;8.1;100.0;100730;;;;
2022/04/12 03:49:00;;;;;;;7.4;6.6;;;;;;;8.1;100.0;100730;;;;
2022/04/12 03:50:00;;;;;;;7.4;6.6;;;;;;;8.1;100.0;100730;;;;
2022/04/12 03:51:00;;;;;;;7.4;6.6;;;;;;;8.3;100.0;100740;;;;
2022/04/12 03:52:00;;;;;;;7.4;6.6;;;;;;;8.3;100.0;100740;;;;
2022/04/12 03:53:00;;;;;;;7.4;6.6;;;;;;;8.4;100.0;100740;;;;
2022/04/12 03:54:00;;;;;;;7.4;6.6;;;;;;;8.4;100.0;100740;;;;
2022/04/12 03:55:00;;;;;;;7.4;6.6;;;;;;;8.3;100.0;100750;;;;
2022/04/12 03:56:04;;;;;;;10.8;7.8;;;;;;;8.3;100.0;100750;;;;
2022/04/12 03:57:00;;;;;;;10.8;7.8;;;;;;;8.2;100.0;100750;;;;
2022/04/12 03:58:00;;;;;;;10.8;7.8;;;;;;;8.2;100.0;100750;;;;
2022/04/12 03:59:00;;;;;;;10.8;7.8;;;;;;;8.3;100.0;100750;;;;
2022/04/12 04:00:00;;;;;;;10.8;7.8;;;;;;;8.3;100.0;100750;;;;
2022/04/12 04:01:00;;;;;;;10.8;7.8;;;;;;;8.3;100.0;100750;;;;
2022/04/12 04:02:00;;;;;;;10.8;7.8;;;;;;;8.3;100.0;100750;;;;
2022/04/12 04:03:00;;;;;;;10.8;7.8;;;;;;;8.4;100.0;100750;;;;
2022/04/12 04:04:00;;;;;;;10.8;7.8;;;;;;;8.4;100.0;100750;;;;
2022/04/12 04:05:00;;;;;;;10.8;7.8;;;;;;;8.3;100.0;100750;;;;
2022/04/12 04:06:00;;;;;;;10.8;7.8;;;;;;;8.3;100.0;100750;;;;
2022/04/12 04:07:00;;;;;;;10.8;7.8;;;;;;;8.3;100.0;100760;;;;
2022/04/12 04:08:00;;;;;;;10.8;7.8;;;;;;;8.3;100.0;100760;;;;
2022/04/12 04:09:00;;;;;;;10.8;7.8;;;;;;;8.2;100.0;100750;;;;
2022/04/12 04:10:00;;;;;;;10.8;7.8;;;;;;;8.2;100.0;100750;;;;
2022/04/12 04:11:00;;;;;;;10.8;7.8;;;;;;;8.2;100.0;100750;;;;
2022/04/12 04:12:03;;;;;;;10.8;7.8;;;;;;;8.2;100.0;100750;;;;
2022/04/12 04:13:01;;;;;;;10.8;7.8;;;;;;;8.2;100.0;100740;;;;
2022/04/12 04:14:03;;;;;;;10.8;7.8;;;;;;;8.2;100.0;100740;;;;
2022/04/12 04:15:00;;;;;;;10.8;7.8;;;;;;;8.2;100.0;100740;;;;
2022/04/12 04:16:00;;;;;;;8.7;7.9;;;;;;;8.2;100.0;100740;;;;
2022/04/12 04:17:01;;;;;;;8.7;7.9;;;;;;;8.2;100.0;100730;;;;
2022/04/12 04:18:00;;;;;;;8.7;7.9;;;;;;;8.2;100.0;100730;;;;
2022/04/12 04:19:00;;;;;;;8.7;7.9;;;;;;;8.1;100.0;100730;;;;
2022/04/12 04:20:00;;;;;;;8.7;7.9;;;;;;;8.1;100.0;100730;;;;
2022/04/12 04:21:00;;;;;;;8.7;7.9;;;;;;;8.2;100.0;100730;;;;
2022/04/12 04:22:01;;;;;;;8.7;7.9;;;;;;;8.2;100.0;100730;;;;
2022/04/12 04:23:00;;;;;;;8.7;7.9;;;;;;;8.1;100.0;100720;;;;
2022/04/12 04:24:00;;;;;;;8.7;7.9;;;;;;;8.1;100.0;100720;;;;
2022/04/12 04:25:06;;;;;;;8.7;7.9;;;;;;;8.1;100.0;100720;;;;
2022/04/12 04:26:00;;;;;;;8.7;7.9;;;;;;;8.1;100.0;100720;;;;
2022/04/12 04:27:00;;;;;;;8.7;7.9;;;;;;;8.1;100.0;100730;;;;
2022/04/12 04:28:00;;;;;;;8.7;7.9;;;;;;;8.1;100.0;100730;;;;
2022/04/12 04:29:01;;;;;;;8.7;7.9;;;;;;;8.1;100.0;100730;;;;
2022/04/12 04:30:00;;;;;;;8.7;7.9;;;;;;;8.1;100.0;100730;;;;
2022/04/12 04:31:00;;;;;;;8.7;7.9;;;;;;;8.1;100.0;100730;;;;
2022/04/12 04:32:00;;;;;;;8.7;7.9;;;;;;;8.1;100.0;100730;;;;
2022/04/12 04:33:00;;;;;;;8.7;7.9;;;;;;;8.1;100.0;100730;;;;
2022/04/12 04:34:00;;;;;;;8.7;7.9;;;;;;;8.1;100.0;100730;;;;
2022/04/12 04:35:00;;;;;;;8.7;7.9;;;;;;;8.2;100.0;100730;;;;
2022/04/12 04:36:00;;;;;;;10.5;8.3;;;;;;;8.2;100.0;100730;;;;
2022/04/12 04:37:00;;;;;;;10.5;8.3;;;;;;;8.3;100.0;100740;;;;
2022/04/12 04:38:00;;;;;;;10.5;8.3;;;;;;;8.3;100.0;100740;;;;
2022/04/12 04:39:00;;;;;;;10.5;8.3;;;;;;;8.2;100.0;100740;;;;
2022/04/12 04:40:00;;;;;;;10.5;8.3;;;;;;;8.2;100.0;100740;;;;
2022/04/12 04:41:00;;;;;;;10.5;8.3;;;;;;;8.3;100.0;100740;;;;
2022/04/12 04:42:00;;;;;;;10.5;8.3;;;;;;;8.3;100.0;100740;;;;
2022/04/12 04:43:02;;;;;;;10.5;8.3;;;;;;;8.4;100.0;100740;;;;
2022/04/12 04:44:00;;;;;;;10.5;8.3;;;;;;;8.4;100.0;100740;;;;
2022/04/12 04:45:00;;;;;;;10.5;8.3;;;;;;;8.3;100.0;100740;;;;
2022/04/12 04:46:00;;;;;;;10.5;8.3;;;;;;;8.3;100.0;100740;;;;
2022/04/12 04:47:00;;;;;;;10.5;8.3;;;;;;;8.2;100.0;100740;;;;
2022/04/12 04:48:01;;;;;;;10.5;8.3;;;;;;;8.2;100.0;100740;;;;
2022/04/12 04:49:00;;;;;;;10.5;8.3;;;;;;;8.2;100.0;100740;;;;
2022/04/12 04:50:01;;;;;;;10.5;8.3;;;;;;;8.2;100.0;100740;;;;
2022/04/12 04:51:00;;;;;;;10.5;8.3;;;;;;;8.3;100.0;100750;;;;
2022/04/12 04:52:00;;;;;;;10.5;8.3;;;;;;;8.3;100.0;100750;;;;
2022/04/12 04:53:02;;;;;;;10.5;8.3;;;;;;;8.3;100.0;100750;;;;
2022/04/12 04:54:00;;;;;;;10.5;8.3;;;;;;;8.3;100.0;100750;;;;
2022/04/12 04:55:00;;;;;;;10.5;8.3;;;;;;;8.2;100.0;100750;;;;
2022/04/12 04:56:00;;;;;;;8.2;7.4;;;;;;;8.2;100.0;100750;;;;
2022/04/12 04:57:00;;;;;;;8.2;7.4;;;;;;;8.2;100.0;100750;;;;
2022/04/12 04:58:00;;;;;;;8.2;7.4;;;;;;;8.2;100.0;100750;;;;
2022/04/12 04:59:00;;;;;;;8.2;7.4;;;;;;;8.2;100.0;100740;;;;
2022/04/12 05:00:02;;;;;;;8.2;7.4;;;;;;;8.2;100.0;100740;;;;
2022/04/12 05:01:00;;;;;;;8.2;7.4;;;;;;;8.2;100.0;100740;;;;
2022/04/12 05:02:00;;;;;;;8.2;7.4;;;;;;;8.2;100.0;100740;;;;
2022/04/12 05:03:01;;;;;;;8.2;7.4;;;;;;;8.1;100.0;100740;;;;
2022/04/12 05:04:00;;;;;;;8.2;7.4;;;;;;;8.1;100.0;100740;;;;
2022/04/12 05:05:01;;;;;;;8.2;7.4;;;;;;;8.2;100.0;100740;;;;
2022/04/12 05:06:00;;;;;;;8.2;7.4;;;;;;;8.2;100.0;100740;;;;
2022/04/12 05:07:00;;;;;;;8.2;7.4;;;;;;;8.2;100.0;100750;;;;
2022/04/12 05:08:02;;;;;;;8.2;7.4;;;;;;;8.2;100.0;100750;;;;
2022/04/12 05:09:00;;;;;;;8.2;7.4;;;;;;;8.2;100.0;100750;;;;
2022/04/12 05:10:00;;;;;;;8.2;7.4;;;;;;;8.2;100.0;100750;;;;
2022/04/12 05:11:00;;;;;;;8.2;7.4;;;;;;;8.2;100.0;100750;;;;
2022/04/12 05:12:00;;;;;;;8.2;7.4;;;;;;;8.2;100.0;100750;;;;
2022/04/12 05:13:00;;;;;;;8.2;7.4;;;;;;;8.3;100.0;100760;;;;
2022/04/12 05:14:00;;;;;;;8.2;7.4;;;;;;;8.3;100.0;100760;;;;
2022/04/12 05:15:00;;;;;;;8.2;7.4;;;;;;;8.2;100.0;100760;;;;
2022/04/12 05:16:00;;;;;;;8.3;7.5;;;;;;;8.2;100.0;100760;;;;
2022/04/12 05:17:00;;;;;;;8.3;7.5;;;;;;;8.4;100.0;100760;;;;
2022/04/12 05:18:00;;;;;;;8.3;7.5;;;;;;;8.4;100.0;100760;;;;
2022/04/12 05:19:00;;;;;;;8.3;7.5;;;;;;;8.3;100.0;100760;;;;
2022/04/12 05:20:00;;;;;;;8.3;7.5;;;;;;;8.3;100.0;100760;;;;
2022/04/12 05:21:00;;;;;;;8.3;7.5;;;;;;;8.2;100.0;100760;;;;
2022/04/12 05:22:00;;;;;;;8.3;7.5;;;;;;;8.2;100.0;100760;;;;
2022/04/12 05:23:00;;;;;;;8.3;7.5;;;;;;;8.3;100.0;100760;;;;
2022/04/12 05:24:00;;;;;;;8.3;7.5;;;;;;;8.3;100.0;100760;;;;
2022/04/12 05:25:00;;;;;;;8.3;7.5;;;;;;;8.4;100.0;100760;;;;
2022/04/12 05:26:00;;;;;;;8.3;7.5;;;;;;;8.4;100.0;100760;;;;
2022/04/12 05:27:00;;;;;;;8.3;7.5;;;;;;;8.4;100.0;100770;;;;
2022/04/12 05:28:00;;;;;;;8.3;7.5;;;;;;;8.4;100.0;100770;;;;
2022/04/12 05:29:00;;;;;;;8.3;7.5;;;;;;;8.5;100.0;100770;;;;
2022/04/12 05:30:00;;;;;;;8.3;7.5;;;;;;;8.5;100.0;100770;;;;
2022/04/12 05:31:00;;;;;;;8.3;7.5;;;;;;;8.6;100.0;100780;;;;
2022/04/12 05:32:00;;;;;;;8.3;7.5;;;;;;;8.6;100.0;100780;;;;
2022/04/12 05:33:00;;;;;;;8.3;7.5;;;;;;;8.6;100.0;100770;;;;
2022/04/12 05:34:00;;;;;;;8.3;7.5;;;;;;;8.6;100.0;100770;;;;
2022/04/12 05:35:00;;;;;;;8.3;7.5;;;;;;;8.6;100.0;100770;;;;
2022/04/12 05:36:00;;;;;;;9.3;8.4;;;;;;;8.6;100.0;100770;;;;
2022/04/12 05:37:00;;;;;;;9.3;8.4;;;;;;;8.8;100.0;100770;;;;
2022/04/12 05:38:01;;;;;;;9.3;8.4;;;;;;;8.8;100.0;100770;;;;
2022/04/12 05:39:00;;;;;;;9.3;8.4;;;;;;;8.8;100.0;100770;;;;
2022/04/12 05:40:03;;;;;;;9.3;8.4;;;;;;;8.8;100.0;100770;;;;
2022/04/12 05:41:00;;;;;;;9.3;8.4;;;;;;;8.8;100.0;100760;;;;
2022/04/12 05:42:00;;;;;;;9.3;8.4;;;;;;;8.8;100.0;100760;;;;
2022/04/12 05:43:03;;;;;;;9.3;8.4;;;;;;;8.7;100.0;100760;;;;
2022/04/12 05:45:00;;;;;;;9.3;8.4;;;;;;;8.7;100.0;100760;;;;
2022/04/12 05:46:00;;;;;;;9.3;8.4;;;;;;;8.7;100.0;100760;;;;
2022/04/12 05:47:00;;;;;;;9.3;8.4;;;;;;;8.8;100.0;100750;;;;
2022/04/12 05:48:00;;;;;;;9.3;8.4;;;;;;;8.8;100.0;100750;;;;
2022/04/12 05:49:00;;;;;;;9.3;8.4;;;;;;;8.8;100.0;100750;;;;
2022/04/12 05:50:00;;;;;;;9.3;8.4;;;;;;;8.8;100.0;100750;;;;
2022/04/12 05:51:00;;;;;;;9.3;8.4;;;;;;;8.8;100.0;100750;;;;
2022/04/12 05:52:00;;;;;;;9.3;8.4;;;;;;;8.8;100.0;100750;;;;
2022/04/12 05:53:00;;;;;;;9.3;8.4;;;;;;;8.8;100.0;100750;;;;
2022/04/12 05:54:00;;;;;;;9.3;8.4;;;;;;;8.8;100.0;100750;;;;
2022/04/12 05:55:00;;;;;;;9.3;8.4;;;;;;;8.9;100.0;100750;;;;
2022/04/12 05:56:00;;;;;;;9.4;8.1;;;;;;;8.9;100.0;100750;;;;
2022/04/12 05:57:00;;;;;;;9.4;8.1;;;;;;;8.9;100.0;100750;;;;
2022/04/12 05:58:01;;;;;;;9.4;8.1;;;;;;;8.9;100.0;100750;;;;
2022/04/12 05:59:00;;;;;;;9.4;8.1;;;;;;;8.8;100.0;100750;;;;
2022/04/12 06:00:00;;;;;;;9.4;8.1;;;;;;;8.8;100.0;100750;;;;
2022/04/12 06:01:00;;;;;;;9.4;8.1;;;;;;;8.8;100.0;100750;;;;
2022/04/12 06:02:00;;;;;;;9.4;8.1;;;;;;;8.8;100.0;100750;;;;
2022/04/12 06:03:02;;;;;;;9.4;8.1;;;;;;;8.8;100.0;100760;;;;
2022/04/12 06:04:00;;;;;;;9.4;8.1;;;;;;;8.8;100.0;100760;;;;
2022/04/12 06:05:00;;;;;;;9.4;8.1;;;;;;;8.9;100.0;100770;;;;
2022/04/12 06:06:00;;;;;;;9.4;8.1;;;;;;;8.9;100.0;100770;;;;
2022/04/12 06:07:00;;;;;;;9.4;8.1;;;;;;;8.9;100.0;100770;;;;
2022/04/12 06:08:00;;;;;;;9.4;8.1;;;;;;;8.9;100.0;100770;;;;
2022/04/12 06:09:00;;;;;;;9.4;8.1;;;;;;;8.9;100.0;100780;;;;
2022/04/12 06:10:00;;;;;;;9.4;8.1;;;;;;;8.9;100.0;100780;;;;
2022/04/12 06:11:00;;;;;;;9.4;8.1;;;;;;;9.0;100.0;100770;;;;
2022/04/12 06:12:00;;;;;;;9.4;8.1;;;;;;;9.0;100.0;100770;;;;
2022/04/12 06:13:00;;;;;;;9.4;8.1;;;;;;;9.0;100.0;100770;;;;
2022/04/12 06:14:00;;;;;;;9.4;8.1;;;;;;;9.0;100.0;100770;;;;
2022/04/12 06:15:00;;;;;;;9.4;8.1;;;;;;;9.0;100.0;100770;;;;
2022/04/12 06:16:00;;;;;;;10.3;9.3;;;;;;;9.0;100.0;100770;;;;
2022/04/12 06:17:00;;;;;;;10.3;9.3;;;;;;;9.1;100.0;100770;;;;
2022/04/12 06:18:00;;;;;;;10.3;9.3;;;;;;;9.1;100.0;100770;;;;
2022/04/12 06:19:00;;;;;;;10.3;9.3;;;;;;;9.1;100.0;100770;;;;
2022/04/12 06:20:02;;;;;;;10.3;9.3;;;;;;;9.1;100.0;100770;;;;
2022/04/12 06:21:04;;;;;;;10.3;9.3;;;;;;;9.2;100.0;100770;;;;
2022/04/12 06:22:00;;;;;;;10.3;9.3;;;;;;;9.2;100.0;100770;;;;
2022/04/12 06:23:00;;;;;;;10.3;9.3;;;;;;;9.1;100.0;100770;;;;
2022/04/12 06:24:00;;;;;;;10.3;9.3;;;;;;;9.1;100.0;100770;;;;
2022/04/12 06:25:00;;;;;;;10.3;9.3;;;;;;;9.2;100.0;100770;;;;
2022/04/12 06:26:00;;;;;;;10.3;9.3;;;;;;;9.2;100.0;100770;;;;
2022/04/12 06:27:00;;;;;;;10.3;9.3;;;;;;;9.3;100.0;100770;;;;
2022/04/12 06:28:00;;;;;;;10.3;9.3;;;;;;;9.3;100.0;100770;;;;
2022/04/12 06:29:00;;;;;;;10.3;9.3;;;;;;;9.3;100.0;100760;;;;
2022/04/12 06:30:10;;;;;;;10.3;9.3;;;;;;;9.3;100.0;100760;;;;
2022/04/12 06:31:00;;;;;;;10.3;9.3;;;;;;;9.4;100.0;100760;;;;